Time;durP1;ratioP1;P1;durP2;ratioP2;P2;SDS_P1;SDS_P2;PMS_P1;PMS_P2;Temp;Humidity;BMP_temperature;BMP_pressure;BME280_temperature;BME280_humidity;BME280_pressure;Samples;Min_cycle;Max_cycle;Signal;HPM_P1;HPM_P2
2023/01/24 00:00:45;;;;;;;44.85;22.70;;;2.50;99.90;;;;;;6180982;23;20032;-86
2023/01/24 00:03:12;;;;;;;49.17;22.85;;;2.70;99.90;;;;;;6182263;23;20039;-85
2023/01/24 00:05:42;;;;;;;44.28;22.02;;;2.50;99.90;;;;;;6181039;23;20008;-85
2023/01/24 00:08:08;;;;;;;45.13;22.30;;;2.50;99.90;;;;;;6181073;23;20005;-86
2023/01/24 00:10:34;;;;;;;48.28;23.23;;;2.50;99.90;;;;;;6181194;23;20001;-84
2023/01/24 00:13:00;;;;;;;45.95;22.35;;;2.50;99.90;;;;;;6181011;23;20345;-85
2023/01/24 00:15:25;;;;;;;48.25;23.55;;;2.50;99.90;;;;;;6181250;23;20338;-85
2023/01/24 00:17:51;;;;;;;53.28;23.42;;;2.50;99.90;;;;;;6181389;23;20040;-84
2023/01/24 00:20:17;;;;;;;46.65;23.50;;;2.50;99.90;;;;;;6180771;23;20009;-86
2023/01/24 00:22:42;;;;;;;43.92;21.88;;;2.50;99.90;;;;;;6181959;23;20001;-85
2023/01/24 00:25:08;;;;;;;42.90;21.05;;;2.50;99.90;;;;;;6180853;23;20009;-85
2023/01/24 00:27:34;;;;;;;46.50;20.58;;;2.40;99.90;;;;;;6201297;23;20507;-85
2023/01/24 00:30:01;;;;;;;51.67;22.55;;;2.50;99.90;;;;;;6184170;23;20311;-85
2023/01/24 00:32:26;;;;;;;44.30;21.73;;;2.50;99.90;;;;;;6183941;23;20091;-85
2023/01/24 00:34:52;;;;;;;44.03;21.90;;;2.40;99.90;;;;;;6210684;23;20028;-85
2023/01/24 00:37:17;;;;;;;43.53;22.73;;;2.40;99.90;;;;;;6210824;23;20031;-85
2023/01/24 00:39:43;;;;;;;41.40;20.77;;;2.40;99.90;;;;;;6185104;23;20009;-85
2023/01/24 00:42:09;;;;;;;41.95;21.73;;;2.40;99.90;;;;;;6183790;23;20004;-84
2023/01/24 00:44:34;;;;;;;41.30;20.90;;;2.30;99.90;;;;;;6210499;23;20035;-85
2023/01/24 00:47:00;;;;;;;42.25;20.85;;;2.40;99.90;;;;;;6210538;23;20050;-85
2023/01/24 00:49:25;;;;;;;42.50;21.55;;;2.40;99.90;;;;;;6210828;23;20393;-86
2023/01/24 00:51:51;;;;;;;44.58;21.73;;;2.40;99.90;;;;;;6183945;23;20015;-85
2023/01/24 00:54:17;;;;;;;38.60;19.85;;;2.30;99.90;;;;;;6211571;23;20062;-85
2023/01/24 00:56:43;;;;;;;37.65;19.45;;;2.40;99.90;;;;;;6184767;23;20009;-85
2023/01/24 00:59:08;;;;;;;38.92;20.05;;;2.40;99.90;;;;;;6210444;23;20044;-85
2023/01/24 01:01:34;;;;;;;38.75;18.70;;;2.30;99.90;;;;;;6210768;23;19996;-85
2023/01/24 01:03:59;;;;;;;38.75;19.27;;;2.30;99.90;;;;;;6210648;23;20011;-85
2023/01/24 01:06:25;;;;;;;32.65;18.42;;;2.30;99.90;;;;;;6210644;23;20000;-85
2023/01/24 01:08:52;;;;;;;25.67;16.13;;;2.20;99.90;;;;;;6183748;23;20005;-85
2023/01/24 01:11:18;;;;;;;31.85;17.15;;;2.00;99.90;;;;;;6211465;23;20510;-85
2023/01/24 01:13:48;;;;;;;31.63;17.33;;;2.00;99.90;;;;;;6211740;23;20001;-85
2023/01/24 01:16:16;;;;;;;30.70;17.48;;;2.00;99.90;;;;;;6211012;23;20004;-84
2023/01/24 01:18:42;;;;;;;;;;;2.00;99.90;;;;;;6210921;23;20008;-86
2023/01/24 01:21:11;;;;;;;30.10;17.60;;;2.00;99.90;;;;;;6210369;23;19994;-86
2023/01/24 01:23:36;;;;;;;;;;;2.00;99.90;;;;;;6211313;23;20000;-86
2023/01/24 01:26:05;;;;;;;30.20;16.10;;;2.00;99.90;;;;;;6210008;23;20330;-85
2023/01/24 01:28:31;;;;;;;30.48;17.13;;;2.00;99.90;;;;;;6210535;23;20074;-85
2023/01/24 01:30:57;;;;;;;29.50;16.65;;;2.00;99.90;;;;;;6210461;23;20031;-85
2023/01/24 01:33:23;;;;;;;28.50;17.02;;;2.10;99.90;;;;;;6210398;23;20441;-86
2023/01/24 01:35:50;;;;;;;27.85;17.30;;;2.10;99.90;;;;;;6184805;23;20066;-85
2023/01/24 01:38:16;;;;;;;29.60;17.45;;;2.00;99.90;;;;;;6184485;23;20385;-85
2023/01/24 01:40:42;;;;;;;30.77;17.35;;;2.10;99.90;;;;;;6183469;23;20005;-85
2023/01/24 01:43:20;;;;;;;27.67;16.27;;;2.10;99.90;;;;;;6183636;23;20442;-84
2023/01/24 01:45:48;;;;;;;29.15;17.35;;;2.10;99.90;;;;;;6211564;23;19996;-85
2023/01/24 01:48:19;;;;;;;25.40;16.05;;;2.20;99.90;;;;;;6210569;23;20047;-85
2023/01/24 01:50:58;;;;;;;27.67;16.33;;;2.20;99.90;;;;;;6210352;23;20008;-86
2023/01/24 01:53:27;;;;;;;29.70;16.52;;;2.20;99.90;;;;;;6210394;23;20011;-86
2023/01/24 01:56:01;;;;;;;28.00;16.27;;;2.20;99.90;;;;;;6210361;23;20003;-85
2023/01/24 01:58:27;;;;;;;28.83;17.25;;;2.20;99.90;;;;;;6209925;23;20388;-85
2023/01/24 02:00:53;;;;;;;30.90;18.13;;;2.20;99.90;;;;;;6210340;23;20008;-91
2023/01/24 02:03:39;;;;;;;29.20;17.63;;;2.20;99.90;;;;;;6211174;23;20061;-85
2023/01/24 02:06:27;;;;;;;30.85;18.10;;;2.20;99.90;;;;;;6210190;23;20016;-85
2023/01/24 02:08:54;;;;;;;31.10;18.20;;;2.20;99.90;;;;;;6210289;23;20039;-85
2023/01/24 02:11:39;;;;;;;31.05;18.17;;;2.20;99.90;;;;;;6212788;23;20747;-85
2023/01/24 02:16:55;;;;;;;31.25;18.63;;;2.10;99.90;;;;;;6212052;23;20007;-85
2023/01/24 02:19:46;;;;;;;31.15;18.73;;;2.10;99.90;;;;;;6213040;23;20009;-85
2023/01/24 02:22:22;;;;;;;31.23;18.08;;;2.10;99.90;;;;;;6212000;23;20000;-87
2023/01/24 02:25:23;;;;;;;33.60;18.73;;;2.10;99.90;;;;;;6213072;23;20034;-85
2023/01/24 02:27:49;;;;;;;38.58;20.63;;;2.10;99.90;;;;;;6212839;23;20012;-85
2023/01/24 02:30:15;;;;;;;35.53;20.27;;;2.10;99.90;;;;;;6212020;23;20004;-85
2023/01/24 02:32:40;;;;;;;33.00;19.98;;;2.10;99.90;;;;;;6211750;23;20067;-85
2023/01/24 02:35:06;;;;;;;32.83;20.08;;;2.00;99.90;;;;;;6211907;23;20437;-84
2023/01/24 02:37:36;;;;;;;36.83;20.70;;;2.10;99.90;;;;;;6211436;23;20027;-85
2023/01/24 02:40:08;;;;;;;34.65;20.48;;;2.10;99.90;;;;;;6211900;23;20425;-84
2023/01/24 02:42:36;;;;;;;37.50;20.70;;;2.10;99.90;;;;;;6211962;23;20003;-85
2023/01/24 02:45:16;;;;;;;37.20;20.65;;;2.10;99.90;;;;;;6211940;23;20028;-85
2023/01/24 02:47:46;;;;;;;35.25;20.55;;;2.10;99.90;;;;;;6184938;23;20005;-85
2023/01/24 02:50:12;;;;;;;36.92;21.27;;;2.10;99.90;;;;;;6211612;23;20009;-86
2023/01/24 02:55:22;;;;;;;30.73;18.88;;;2.10;99.90;;;;;;6212796;23;20046;-85
2023/01/24 02:58:06;;;;;;;38.55;20.70;;;2.10;99.90;;;;;;6211226;23;20013;-84
2023/01/24 03:00:33;;;;;;;35.65;21.27;;;2.10;99.90;;;;;;6211802;23;20368;-85
2023/01/24 03:02:59;;;;;;;35.10;20.10;;;2.10;99.90;;;;;;6185104;23;20011;-84
2023/01/24 03:05:25;;;;;;;41.63;21.45;;;2.10;99.90;;;;;;6211742;23;20032;-85
2023/01/24 03:07:50;;;;;;;37.33;21.92;;;2.10;99.90;;;;;;6212718;23;20011;-85
2023/01/24 03:10:18;;;;;;;37.78;20.88;;;2.10;99.90;;;;;;6211377;23;20003;-85
2023/01/24 03:34:50;;;;;;;40.30;21.05;;;2.00;99.90;;;;;;6211199;23;20016;-84
2023/01/24 03:40:11;;;;;;;37.65;21.10;;;2.00;99.90;;;;;;6211185;23;20063;-84
2023/01/24 03:42:46;;;;;;;38.78;20.83;;;2.00;99.90;;;;;;6211455;23;20000;-84
2023/01/24 03:45:15;;;;;;;41.13;21.70;;;2.00;99.90;;;;;;6211305;23;20080;-85
2023/01/24 03:47:54;;;;;;;39.47;22.63;;;2.10;99.90;;;;;;6210822;23;20007;-86
2023/01/24 03:53:26;;;;;;;38.22;21.45;;;2.10;99.90;;;;;;6212376;23;20465;-84
2023/01/24 03:55:58;;;;;;;37.38;21.63;;;2.00;99.90;;;;;;6211277;23;20004;-86
2023/01/24 03:58:25;;;;;;;38.22;22.30;;;2.00;99.90;;;;;;6185464;23;20012;-86
2023/01/24 04:00:53;;;;;;;40.60;22.17;;;2.10;99.90;;;;;;6211331;23;20005;-85
2023/01/24 04:03:18;;;;;;;37.83;21.90;;;2.00;99.90;;;;;;6211003;23;20032;-85
2023/01/24 04:05:46;;;;;;;36.88;21.70;;;2.10;99.90;;;;;;6211151;23;20003;-85
2023/01/24 04:08:12;;;;;;;44.15;23.67;;;2.10;99.90;;;;;;6210660;23;20039;-84
2023/01/24 04:10:38;;;;;;;37.95;21.63;;;2.00;99.90;;;;;;6211038;23;20004;-85
2023/01/24 04:13:03;;;;;;;39.05;22.35;;;2.00;99.90;;;;;;6184384;23;20009;-86
2023/01/24 04:15:32;;;;;;;40.83;22.83;;;2.00;99.90;;;;;;6211116;23;20369;-85
2023/01/24 04:18:00;;;;;;;42.92;24.67;;;2.00;99.90;;;;;;6211885;23;20330;-85
2023/01/24 04:20:28;;;;;;;38.83;22.35;;;2.00;99.90;;;;;;6211934;23;19997;-84
2023/01/24 04:22:54;;;;;;;43.78;23.90;;;2.00;99.90;;;;;;6184322;23;20349;-85
2023/01/24 04:25:20;;;;;;;39.03;24.23;;;2.00;99.90;;;;;;6210839;23;20079;-85
2023/01/24 04:27:46;;;;;;;39.70;23.55;;;2.10;99.90;;;;;;6210796;23;20005;-85
2023/01/24 04:30:13;;;;;;;40.47;23.90;;;2.10;99.90;;;;;;6211427;23;20051;-85
2023/01/24 04:32:40;;;;;;;41.77;24.57;;;2.10;99.90;;;;;;6210592;23;20000;-85
2023/01/24 04:35:06;;;;;;;43.28;24.02;;;2.20;99.90;;;;;;6210883;23;20000;-85
2023/01/24 04:37:32;;;;;;;38.60;22.88;;;2.10;99.90;;;;;;6210799;23;20058;-85
2023/01/24 04:40:00;;;;;;;39.28;23.60;;;2.20;99.90;;;;;;6185021;23;20484;-86
2023/01/24 04:42:26;;;;;;;43.72;24.83;;;2.20;99.90;;;;;;6184579;23;20011;-90
2023/01/24 04:44:51;;;;;;;47.97;25.45;;;2.10;99.90;;;;;;6209219;23;20084;-89
2023/01/24 04:47:17;;;;;;;43.75;24.90;;;2.20;99.90;;;;;;6184088;23;20370;-86
2023/01/24 04:49:43;;;;;;;43.47;24.38;;;2.10;99.90;;;;;;6210500;23;20079;-87
2023/01/24 04:52:11;;;;;;;51.03;25.55;;;2.10;99.90;;;;;;6184417;23;20047;-85
2023/01/24 04:54:40;;;;;;;41.08;24.67;;;2.20;99.90;;;;;;6184129;23;20012;-86
2023/01/24 04:57:07;;;;;;;41.40;24.90;;;2.10;99.90;;;;;;6210750;23;20064;-85
2023/01/24 04:59:33;;;;;;;45.97;26.02;;;2.20;99.90;;;;;;6210640;23;20066;-84
2023/01/24 05:01:59;;;;;;;41.20;24.35;;;2.20;99.90;;;;;;6211662;23;20043;-86
2023/01/24 05:04:24;;;;;;;43.22;24.77;;;2.20;99.90;;;;;;6210466;23;20388;-84
2023/01/24 05:06:50;;;;;;;45.30;26.35;;;2.10;99.90;;;;;;6210293;23;20894;-86
2023/01/24 05:09:15;;;;;;;45.22;25.70;;;2.10;99.90;;;;;;6210453;23;19997;-84
2023/01/24 05:11:41;;;;;;;46.70;26.48;;;2.10;99.90;;;;;;6210200;23;20083;-86
2023/01/24 05:14:10;;;;;;;46.15;26.13;;;2.10;99.90;;;;;;6182153;23;20000;-83
2023/01/24 05:16:37;;;;;;;46.38;25.20;;;2.10;99.90;;;;;;6210134;23;20054;-84
2023/01/24 05:19:03;;;;;;;44.60;25.10;;;2.10;99.90;;;;;;6205043;23;20124;-84
2023/01/24 05:21:29;;;;;;;45.33;26.00;;;2.10;99.90;;;;;;6209246;23;20001;-83
2023/01/24 05:23:55;;;;;;;43.97;24.40;;;2.10;99.90;;;;;;6209120;23;20012;-84
2023/01/24 05:26:22;;;;;;;43.20;25.13;;;2.20;99.90;;;;;;6209665;23;20422;-86
2023/01/24 05:28:49;;;;;;;44.10;26.42;;;2.10;99.90;;;;;;6209434;23;20337;-85
2023/01/24 05:31:15;;;;;;;44.53;26.17;;;2.20;99.90;;;;;;6209462;23;20063;-88
2023/01/24 05:33:41;;;;;;;45.97;25.08;;;2.20;99.90;;;;;;6209318;23;20043;-86
2023/01/24 05:36:12;;;;;;;44.97;25.35;;;2.10;99.90;;;;;;6182603;23;20048;-85
2023/01/24 05:38:38;;;;;;;45.85;25.38;;;2.10;99.90;;;;;;6209225;23;20044;-85
2023/01/24 05:41:06;;;;;;;46.72;26.88;;;2.10;99.90;;;;;;6209599;23;20047;-86
2023/01/24 05:43:32;;;;;;;43.78;25.30;;;2.10;99.90;;;;;;6210353;23;20001;-84
2023/01/24 05:46:03;;;;;;;45.28;24.02;;;2.10;99.90;;;;;;6210879;23;20001;-85
2023/01/24 05:48:29;;;;;;;44.25;26.23;;;2.10;99.90;;;;;;6184407;23;20479;-84
2023/01/24 05:50:59;;;;;;;50.60;25.77;;;2.10;99.90;;;;;;6209151;23;20322;-84
2023/01/24 05:53:29;;;;;;;44.47;24.85;;;2.00;99.90;;;;;;6210261;23;20054;-84
2023/01/24 05:55:59;;;;;;;47.00;26.30;;;2.00;99.90;;;;;;6210296;23;20001;-86
2023/01/24 05:58:26;;;;;;;46.00;26.38;;;2.10;99.90;;;;;;6210284;23;20434;-84
2023/01/24 06:00:52;;;;;;;43.30;25.55;;;2.20;99.90;;;;;;6210243;23;20254;-85
2023/01/24 06:03:18;;;;;;;48.20;26.15;;;2.20;99.90;;;;;;6210334;23;20012;-84
2023/01/24 06:05:52;;;;;;;48.15;25.55;;;2.10;99.90;;;;;;6210257;23;20064;-85
2023/01/24 06:08:18;;;;;;;47.47;28.08;;;2.00;99.90;;;;;;6210203;23;20075;-85
2023/01/24 06:10:44;;;;;;;45.80;26.00;;;2.00;99.90;;;;;;6210213;23;20003;-84
2023/01/24 06:13:10;;;;;;;47.30;25.58;;;2.10;99.90;;;;;;6210023;23;20080;-84
2023/01/24 06:15:36;;;;;;;44.25;25.05;;;2.10;99.90;;;;;;6210313;23;20437;-84
2023/01/24 06:18:02;;;;;;;47.58;27.55;;;2.10;99.90;;;;;;6211082;23;20414;-84
2023/01/24 06:20:28;;;;;;;45.33;26.20;;;2.20;99.90;;;;;;6183501;23;20009;-84
2023/01/24 06:22:58;;;;;;;44.58;26.38;;;2.20;99.90;;;;;;6209684;23;20284;-84
2023/01/24 06:25:25;;;;;;;45.75;26.23;;;2.10;99.90;;;;;;6209801;23;20420;-83
2023/01/24 06:27:51;;;;;;;47.92;26.23;;;2.10;99.90;;;;;;6178154;23;20096;-84
2023/01/24 06:30:18;;;;;;;46.67;26.15;;;2.10;99.90;;;;;;6179914;23;20006;-84
2023/01/24 06:33:22;;;;;;;51.78;27.55;;;2.00;99.90;;;;;;6180294;23;20005;-84
2023/01/24 06:36:23;;;;;;;47.88;25.73;;;2.00;99.90;;;;;;6180031;23;20001;-84
2023/01/24 06:38:49;;;;;;;47.42;25.80;;;2.00;99.90;;;;;;6180051;23;20017;-85
2023/01/24 06:41:16;;;;;;;49.15;27.27;;;2.00;99.90;;;;;;6180225;23;20147;-84
2023/01/24 06:43:44;;;;;;;45.15;26.70;;;2.00;99.90;;;;;;6180191;23;20024;-84
2023/01/24 06:46:11;;;;;;;47.50;26.17;;;2.00;99.90;;;;;;6180477;23;20005;-84
2023/01/24 06:48:36;;;;;;;47.47;27.20;;;2.00;99.90;;;;;;6179429;23;20005;-85
2023/01/24 06:51:02;;;;;;;47.67;25.17;;;1.90;99.90;;;;;;6180984;23;20516;-83
2023/01/24 06:53:27;;;;;;;48.42;26.58;;;2.00;99.90;;;;;;6180094;23;20009;-84
2023/01/24 06:55:53;;;;;;;52.45;25.70;;;2.00;99.90;;;;;;6180395;23;20029;-84
2023/01/24 06:58:18;;;;;;;46.05;26.73;;;1.90;99.90;;;;;;6181668;23;20017;-84
2023/01/24 07:00:44;;;;;;;45.13;26.33;;;2.00;99.90;;;;;;6180195;23;20008;-83
2023/01/24 07:03:10;;;;;;;47.45;26.50;;;2.00;99.90;;;;;;6181129;23;20371;-84
2023/01/24 07:05:38;;;;;;;46.85;26.55;;;2.00;99.90;;;;;;6182071;23;20005;-84
2023/01/24 07:08:06;;;;;;;47.72;27.25;;;1.90;99.90;;;;;;6182563;23;20457;-84
2023/01/24 07:10:32;;;;;;;47.08;26.15;;;1.90;99.90;;;;;;6182892;23;20009;-83
2023/01/24 07:12:58;;;;;;;48.15;26.52;;;1.90;99.90;;;;;;6181698;23;19997;-84
2023/01/24 07:15:24;;;;;;;45.90;25.90;;;1.90;99.90;;;;;;6181185;23;20059;-85
2023/01/24 07:17:50;;;;;;;49.00;25.27;;;2.00;99.90;;;;;;6181472;23;20092;-84
2023/01/24 07:20:16;;;;;;;50.78;26.08;;;1.90;99.90;;;;;;6180620;23;20009;-86
2023/01/24 07:22:42;;;;;;;51.95;26.23;;;2.10;99.90;;;;;;6181257;23;20068;-85
2023/01/24 07:25:18;;;;;;;49.15;26.17;;;2.00;99.90;;;;;;6181522;23;20327;-84
2023/01/24 07:27:44;;;;;;;50.00;26.25;;;1.90;99.90;;;;;;6203632;23;20437;-84
2023/01/24 07:30:12;;;;;;;49.22;26.98;;;1.90;99.90;;;;;;6211009;23;20066;-85
2023/01/24 07:32:38;;;;;;;47.72;25.65;;;1.90;99.90;;;;;;6211986;23;20012;-84
2023/01/24 07:35:05;;;;;;;50.33;26.92;;;1.80;99.90;;;;;;6212584;23;20000;-85
2023/01/24 07:37:31;;;;;;;46.45;25.63;;;1.80;99.90;;;;;;6211522;23;20028;-84
2023/01/24 07:39:56;;;;;;;53.38;27.58;;;1.80;99.90;;;;;;6211465;23;20000;-83
2023/01/24 07:42:22;;;;;;;50.72;26.92;;;1.90;99.90;;;;;;6211275;23;20004;-83
2023/01/24 07:44:48;;;;;;;53.95;27.70;;;1.90;99.90;;;;;;6210696;23;20009;-84
2023/01/24 07:47:14;;;;;;;59.45;28.58;;;1.90;99.90;;;;;;6211105;23;20076;-83
2023/01/24 07:49:39;;;;;;;53.88;27.20;;;1.90;99.90;;;;;;6184758;23;20091;-84
2023/01/24 07:52:05;;;;;;;49.90;27.95;;;1.90;99.90;;;;;;6212463;23;20003;-83
2023/01/24 07:54:30;;;;;;;50.20;27.02;;;2.00;99.90;;;;;;6211298;23;20004;-84
2023/01/24 07:56:56;;;;;;;47.22;26.88;;;2.00;99.90;;;;;;6211141;23;20024;-84
2023/01/24 07:59:22;;;;;;;53.10;27.38;;;2.10;99.90;;;;;;6209868;23;20028;-84
2023/01/24 08:01:47;;;;;;;48.05;26.30;;;2.20;99.90;;;;;;6183677;23;20001;-84
2023/01/24 08:04:13;;;;;;;49.25;26.73;;;2.10;99.90;;;;;;6211285;23;20052;-83
2023/01/24 08:07:16;;;;;;;48.85;26.90;;;2.10;99.90;;;;;;6211775;23;20008;-84
2023/01/24 08:09:28;;;;;;;50.30;26.75;;;2.10;99.90;;;;;;6210486;23;20000;-84
2023/01/24 08:11:54;;;;;;;50.30;27.00;;;2.10;99.90;;;;;;6210992;23;20012;-84
2023/01/24 08:14:21;;;;;;;52.40;27.65;;;2.00;99.90;;;;;;6210900;23;20330;-84
2023/01/24 08:16:47;;;;;;;49.17;25.85;;;2.10;99.90;;;;;;6210286;23;20001;-84
2023/01/24 08:19:13;;;;;;;55.88;28.42;;;2.00;99.90;;;;;;6211046;23;20016;-84
2023/01/24 08:21:38;;;;;;;53.17;27.42;;;2.00;99.90;;;;;;6211781;23;20001;-83
2023/01/24 08:24:04;;;;;;;53.50;27.80;;;2.10;99.90;;;;;;6184360;23;20008;-84
2023/01/24 08:26:30;;;;;;;51.63;27.50;;;2.10;99.90;;;;;;6210884;23;20634;-84
2023/01/24 08:28:55;;;;;;;56.72;28.05;;;2.10;99.90;;;;;;6210852;23;20438;-84
2023/01/24 08:31:21;;;;;;;55.45;28.50;;;2.10;99.90;;;;;;6211044;23;20000;-83
2023/01/24 08:33:47;;;;;;;57.67;27.95;;;2.10;99.90;;;;;;6210456;23;20068;-84
2023/01/24 08:36:12;;;;;;;61.13;29.60;;;2.10;99.90;;;;;;6210588;23;20008;-85
2023/01/24 08:38:38;;;;;;;57.00;28.80;;;2.00;99.90;;;;;;6211842;23;20012;-84
2023/01/24 08:41:04;;;;;;;58.78;29.40;;;2.10;99.90;;;;;;6183690;23;20332;-84
2023/01/24 08:43:30;;;;;;;57.90;29.33;;;2.10;99.90;;;;;;6210597;23;20009;-84
2023/01/24 08:45:56;;;;;;;63.20;29.60;;;2.20;99.90;;;;;;6210813;23;20001;-86
2023/01/24 08:48:21;;;;;;;62.47;29.45;;;2.30;99.90;;;;;;6210278;23;20001;-85
2023/01/24 08:50:47;;;;;;;59.22;28.88;;;2.30;99.90;;;;;;6210890;23;20001;-86
2023/01/24 08:53:14;;;;;;;59.08;30.02;;;2.30;99.90;;;;;;6210633;23;20337;-85
2023/01/24 08:55:40;;;;;;;58.45;29.67;;;2.30;99.90;;;;;;6211744;23;19997;-85
2023/01/24 08:58:05;;;;;;;63.10;30.83;;;2.30;99.90;;;;;;6210292;23;20008;-86
2023/01/24 09:00:32;;;;;;;68.25;32.33;;;2.30;99.90;;;;;;6210862;23;20000;-84
2023/01/24 09:03:00;;;;;;;62.75;31.50;;;2.30;99.90;;;;;;6210249;23;20004;-85
2023/01/24 09:05:26;;;;;;;62.42;29.73;;;2.40;99.90;;;;;;6210611;23;20337;-85
2023/01/24 09:07:52;;;;;;;64.97;32.10;;;2.30;99.90;;;;;;6210941;23;20511;-84
2023/01/24 09:10:17;;;;;;;66.40;31.83;;;2.30;99.90;;;;;;6210330;23;20000;-84
2023/01/24 09:12:43;;;;;;;60.25;30.48;;;2.30;99.90;;;;;;6210109;23;20008;-84
2023/01/24 09:15:09;;;;;;;61.28;30.38;;;2.40;99.90;;;;;;6211342;23;20004;-86
2023/01/24 09:17:36;;;;;;;62.42;31.00;;;2.40;99.90;;;;;;6210010;23;20393;-86
2023/01/24 09:20:02;;;;;;;61.78;31.42;;;2.50;99.90;;;;;;6209939;23;20015;-85
2023/01/24 09:22:28;;;;;;;66.95;31.77;;;2.40;99.90;;;;;;6183840;23;20007;-87
2023/01/24 09:24:54;;;;;;;64.28;30.13;;;2.40;99.90;;;;;;6210321;23;20004;-86
2023/01/24 09:27:19;;;;;;;63.75;31.15;;;2.50;99.90;;;;;;6209869;23;20005;-83
2023/01/24 09:29:45;;;;;;;67.68;32.15;;;2.50;99.90;;;;;;6210514;23;20035;-84
2023/01/24 09:32:12;;;;;;;69.28;33.40;;;2.50;99.90;;;;;;6185175;23;20036;-84
2023/01/24 09:34:40;;;;;;;62.30;30.63;;;2.50;99.90;;;;;;6183857;23;20015;-86
2023/01/24 09:37:06;;;;;;;65.60;31.07;;;2.50;99.90;;;;;;6183197;23;20032;-86
2023/01/24 09:39:31;;;;;;;64.82;32.15;;;2.40;99.90;;;;;;6209755;23;20015;-85
2023/01/24 09:42:22;;;;;;;67.07;32.15;;;2.50;99.90;;;;;;6210174;23;20008;-85
2023/01/24 09:45:21;;;;;;;67.38;31.08;;;2.50;99.90;;;;;;6183738;23;20000;-85
2023/01/24 09:48:15;;;;;;;70.05;32.80;;;2.50;99.90;;;;;;6183482;23;20039;-85
2023/01/24 09:50:51;;;;;;;65.22;31.10;;;2.50;99.90;;;;;;6206694;23;20005;-84
2023/01/24 09:53:28;;;;;;;68.05;31.30;;;2.50;99.90;;;;;;6183068;23;20507;-84
2023/01/24 09:55:57;;;;;;;62.35;30.75;;;2.50;99.90;;;;;;6210593;23;20422;-84
2023/01/24 09:58:31;;;;;;;65.85;31.65;;;2.60;99.90;;;;;;6209613;23;20004;-84
2023/01/24 10:01:14;;;;;;;71.63;32.97;;;2.50;99.90;;;;;;6210043;23;20035;-85
2023/01/24 10:03:41;;;;;;;67.07;31.77;;;2.50;99.90;;;;;;6183522;23;20001;-84
2023/01/24 10:06:25;;;;;;;61.15;30.73;;;2.40;99.90;;;;;;6182648;23;20004;-84
2023/01/24 10:09:12;;;;;;;63.08;30.35;;;2.50;99.90;;;;;;6209667;23;20000;-84
2023/01/24 10:11:56;;;;;;;69.10;31.95;;;2.40;99.90;;;;;;6210254;23;20438;-83
2023/01/24 10:14:41;;;;;;;76.40;33.13;;;2.50;99.90;;;;;;6210115;23;20011;-84
2023/01/24 10:17:24;;;;;;;64.95;31.50;;;2.50;99.90;;;;;;6210090;23;20039;-83
2023/01/24 10:20:10;;;;;;;67.32;32.38;;;2.50;99.90;;;;;;6182796;23;20012;-83
2023/01/24 10:23:18;;;;;;;68.50;32.80;;;2.60;99.90;;;;;;6209807;23;20000;-83
2023/01/24 10:26:03;;;;;;;68.57;33.28;;;2.70;99.90;;;;;;6209771;23;20031;-85
2023/01/24 10:28:40;;;;;;;68.18;33.28;;;2.60;99.90;;;;;;6183333;23;20044;-83
2023/01/24 10:31:14;;;;;;;71.13;31.35;;;2.60;99.90;;;;;;6210380;23;20530;-83
2023/01/24 10:33:53;;;;;;;70.57;32.67;;;2.70;99.90;;;;;;6211983;23;20383;-83
2023/01/24 10:36:26;;;;;;;69.70;33.38;;;2.80;99.90;;;;;;6211259;23;20015;-84
2023/01/24 10:38:51;;;;;;;66.32;31.83;;;2.80;99.90;;;;;;6212031;23;20087;-85
2023/01/24 10:41:23;;;;;;;65.80;31.30;;;2.90;99.90;;;;;;6212338;23;20027;-84
2023/01/24 10:43:58;;;;;;;66.57;32.45;;;2.80;99.90;;;;;;6211904;23;20007;-84
2023/01/24 10:46:44;;;;;;;71.82;32.00;;;2.90;99.90;;;;;;6211895;23;20035;-84
2023/01/24 10:49:18;;;;;;;67.03;33.47;;;3.10;99.90;;;;;;6185140;23;20012;-83
2023/01/24 10:52:09;;;;;;;64.05;30.80;;;3.00;99.90;;;;;;6212070;23;20008;-84
2023/01/24 10:54:56;;;;;;;62.42;31.77;;;3.00;99.90;;;;;;6184721;23;20005;-85
2023/01/24 10:57:35;;;;;;;60.95;31.98;;;3.00;99.90;;;;;;6211980;23;19997;-84
2023/01/24 11:00:02;;;;;;;;;;;3.00;99.90;;;;;;6212323;23;20005;-85
2023/01/24 11:02:34;;;;;;;59.60;29.83;;;3.00;99.90;;;;;;6211805;23;19899;-84
2023/01/24 11:05:10;;;;;;;60.45;30.15;;;3.00;99.90;;;;;;6211178;23;20031;-83
2023/01/24 11:07:40;;;;;;;63.05;30.33;;;3.00;99.90;;;;;;6211500;23;20001;-84
2023/01/24 11:10:25;;;;;;;69.25;33.17;;;2.90;99.90;;;;;;6211839;23;20079;-84
2023/01/24 11:12:57;;;;;;;63.75;31.65;;;3.00;99.90;;;;;;6211040;23;20054;-84
2023/01/24 11:15:30;;;;;;;63.25;32.30;;;3.00;99.90;;;;;;6184952;23;20376;-84
2023/01/24 11:18:20;;;;;;;63.72;32.97;;;3.00;99.90;;;;;;6210934;23;20005;-83
2023/01/24 11:20:46;;;;;;;65.18;32.17;;;3.00;99.90;;;;;;6211529;23;20531;-84
2023/01/24 11:23:16;;;;;;;67.70;33.05;;;3.10;99.90;;;;;;6211493;23;20000;-85
2023/01/24 11:25:55;;;;;;;69.85;33.78;;;3.20;99.90;;;;;;6211514;23;20004;-84
2023/01/24 11:28:25;;;;;;;65.13;32.53;;;3.20;99.90;;;;;;6211323;23;20047;-85
2023/01/24 11:30:52;;;;;;;64.88;33.65;;;3.20;99.90;;;;;;6211551;23;20330;-84
2023/01/24 11:33:41;;;;;;;62.95;32.25;;;3.20;99.90;;;;;;6211975;23;20092;-84
2023/01/24 11:36:28;;;;;;;62.75;32.90;;;3.20;99.90;;;;;;6211403;23;20437;-84
2023/01/24 11:38:56;;;;;;;64.35;33.40;;;3.30;99.90;;;;;;6211511;23;20488;-84
2023/01/24 11:41:43;;;;;;;71.03;33.72;;;3.10;99.90;;;;;;6211483;23;20001;-84
2023/01/24 11:44:31;;;;;;;69.50;34.15;;;3.00;99.90;;;;;;6210454;23;20059;-88
2023/01/24 11:46:59;;;;;;;66.47;31.77;;;3.10;99.90;;;;;;6211479;23;20071;-88
2023/01/24 11:50:24;;;;;;;68.03;33.35;;;3.10;99.90;;;;;;6184795;23;20079;-83
2023/01/24 11:53:11;;;;;;;61.45;32.35;;;3.10;99.90;;;;;;6062688;23;20446;-86
2023/01/24 11:55:59;;;;;;;65.88;33.85;;;3.30;99.90;;;;;;6201745;23;20008;-87
2023/01/24 11:58:51;;;;;;;64.78;32.85;;;3.30;99.90;;;;;;6141828;23;20091;-86
2023/01/24 12:01:38;;;;;;;67.80;35.47;;;3.30;99.90;;;;;;6204874;23;20007;-85
2023/01/24 12:04:25;;;;;;;69.32;33.40;;;3.30;99.90;;;;;;6211010;23;20441;-85
2023/01/24 12:07:08;;;;;;;67.50;32.95;;;3.30;99.90;;;;;;6212255;23;20023;-83
2023/01/24 12:09:45;;;;;;;68.32;33.78;;;3.30;99.90;;;;;;6210984;23;20438;-84
2023/01/24 12:12:17;;;;;;;66.65;33.47;;;3.40;99.90;;;;;;6211174;23;20058;-83
2023/01/24 12:15:11;;;;;;;64.47;33.58;;;3.50;99.90;;;;;;6210507;23;20005;-84
2023/01/24 12:17:39;;;;;;;58.95;30.02;;;3.40;99.90;;;;;;6211016;23;20004;-84
2023/01/24 12:20:28;;;;;;;61.78;33.28;;;3.40;99.90;;;;;;6211033;23;20339;-87
2023/01/24 12:22:56;;;;;;;62.40;32.25;;;3.50;99.90;;;;;;6184231;23;20384;-84
2023/01/24 12:25:40;;;;;;;65.40;32.67;;;3.60;99.90;;;;;;6212143;23;20024;-85
2023/01/24 12:28:11;;;;;;;62.63;32.85;;;3.40;99.90;;;;;;6210871;23;20008;-86
2023/01/24 12:30:40;;;;;;;62.20;33.22;;;3.40;99.90;;;;;;6210407;23;20009;-86
2023/01/24 12:33:17;;;;;;;68.00;34.95;;;3.50;99.90;;;;;;6184345;23;20412;-85
2023/01/24 12:35:47;;;;;;;62.88;32.67;;;3.50;99.90;;;;;;6210706;23;20004;-86
2023/01/24 12:38:20;;;;;;;69.90;34.25;;;3.60;99.90;;;;;;6211086;23;20019;-87
2023/01/24 12:40:52;;;;;;;65.53;34.20;;;3.50;99.90;;;;;;6184052;23;20568;-86
2023/01/24 12:43:31;;;;;;;65.22;33.22;;;3.40;99.90;;;;;;6210992;23;20051;-88
2023/01/24 12:46:35;;;;;;;59.30;30.42;;;3.50;99.90;;;;;;6210451;23;20416;-85
2023/01/24 12:49:20;;;;;;;62.90;33.50;;;3.50;99.90;;;;;;6210633;23;20074;-84
2023/01/24 12:51:51;;;;;;;59.00;31.02;;;3.50;99.90;;;;;;6210923;23;20452;-85
2023/01/24 12:54:34;;;;;;;63.55;33.67;;;3.50;99.90;;;;;;6210115;23;20001;-84
2023/01/24 12:57:14;;;;;;;58.53;31.73;;;3.60;99.90;;;;;;6210709;23;20062;-84
2023/01/24 12:59:39;;;;;;;64.30;31.25;;;3.50;99.90;;;;;;6183749;23;20020;-85
2023/01/24 13:02:11;;;;;;;56.65;29.50;;;3.50;99.90;;;;;;6210998;23;20436;-87
2023/01/24 13:04:46;;;;;;;61.53;30.77;;;3.30;99.90;;;;;;6210584;23;20004;-86
2023/01/24 13:07:39;;;;;;;59.92;30.52;;;3.40;99.90;;;;;;6210577;23;20000;-86
2023/01/24 13:10:38;;;;;;;60.28;29.90;;;3.40;99.90;;;;;;6183428;23;20331;-86
2023/01/24 13:13:05;;;;;;;58.10;30.58;;;3.60;99.90;;;;;;6210295;23;20004;-85
2023/01/24 13:15:43;;;;;;;54.30;28.15;;;3.60;99.90;;;;;;6210595;23;20051;-85
2023/01/24 13:18:28;;;;;;;;;;;3.50;99.90;;;;;;6210816;23;20531;-85
2023/01/24 13:21:06;;;;;;;58.60;29.17;;;3.40;99.90;;;;;;6211696;23;19903;-88
2023/01/24 13:23:43;;;;;;;57.67;30.13;;;3.30;99.90;;;;;;6210586;23;20004;-88
2023/01/24 13:26:22;;;;;;;58.97;29.65;;;3.40;99.90;;;;;;6210302;23;20024;-86
2023/01/24 13:29:27;;;;;;;62.90;30.98;;;3.50;99.90;;;;;;6210300;23;20066;-88
2023/01/24 13:32:29;;;;;;;63.08;30.00;;;3.50;99.90;;;;;;6159531;23;20015;-87